sensor_id;sensor_type;location;lat;lon;timestamp;temperature;humidity
21387;DHT22;10854;45.922;6.716;2023-03-14T00:01:17;7.80;99.90
21387;DHT22;10854;45.922;6.716;2023-03-14T00:03:46;7.80;99.90
21387;DHT22;10854;45.922;6.716;2023-03-14T00:06:15;7.80;99.90
21387;DHT22;10854;45.922;6.716;2023-03-14T00:08:45;7.70;99.90
21387;DHT22;10854;45.922;6.716;2023-03-14T00:11:16;7.60;99.90
21387;DHT22;10854;45.922;6.716;2023-03-14T00:13:51;7.60;99.90
21387;DHT22;10854;45.922;6.716;2023-03-14T00:16:20;7.50;99.90
21387;DHT22;10854;45.922;6.716;2023-03-14T00:18:48;7.40;99.90
21387;DHT22;10854;45.922;6.716;2023-03-14T00:21:18;7.30;99.90
21387;DHT22;10854;45.922;6.716;2023-03-14T00:23:47;7.20;99.90
21387;DHT22;10854;45.922;6.716;2023-03-14T00:26:17;7.00;99.90
21387;DHT22;10854;45.922;6.716;2023-03-14T00:28:47;6.90;99.90
21387;DHT22;10854;45.922;6.716;2023-03-14T00:31:19;6.70;99.90
21387;DHT22;10854;45.922;6.716;2023-03-14T00:33:47;6.70;99.90
21387;DHT22;10854;45.922;6.716;2023-03-14T00:36:17;6.60;99.90
21387;DHT22;10854;45.922;6.716;2023-03-14T00:38:50;6.50;99.90
21387;DHT22;10854;45.922;6.716;2023-03-14T00:41:22;6.50;99.90
21387;DHT22;10854;45.922;6.716;2023-03-14T00:43:53;6.50;99.90
21387;DHT22;10854;45.922;6.716;2023-03-14T00:46:21;6.50;99.90
21387;DHT22;10854;45.922;6.716;2023-03-14T00:48:50;6.40;99.90
21387;DHT22;10854;45.922;6.716;2023-03-14T00:51:18;6.30;99.90
21387;DHT22;10854;45.922;6.716;2023-03-14T00:53:47;6.20;99.90
21387;DHT22;10854;45.922;6.716;2023-03-14T00:56:16;6.10;99.90
21387;DHT22;10854;45.922;6.716;2023-03-14T00:58:44;6.00;99.90
21387;DHT22;10854;45.922;6.716;2023-03-14T01:01:15;6.00;99.90
21387;DHT22;10854;45.922;6.716;2023-03-14T01:03:44;6.00;99.90
21387;DHT22;10854;45.922;6.716;2023-03-14T01:06:17;6.00;99.90
21387;DHT22;10854;45.922;6.716;2023-03-14T01:08:46;6.00;99.90
21387;DHT22;10854;45.922;6.716;2023-03-14T01:11:18;6.10;99.90
21387;DHT22;10854;45.922;6.716;2023-03-14T01:13:47;6.10;99.90
21387;DHT22;10854;45.922;6.716;2023-03-14T01:16:16;6.10;99.90
21387;DHT22;10854;45.922;6.716;2023-03-14T01:18:47;6.10;99.90
21387;DHT22;10854;45.922;6.716;2023-03-14T01:21:22;6.10;99.90
21387;DHT22;10854;45.922;6.716;2023-03-14T01:23:54;6.10;99.90
21387;DHT22;10854;45.922;6.716;2023-03-14T01:26:25;6.10;99.90
21387;DHT22;10854;45.922;6.716;2023-03-14T01:28:54;6.10;99.90
21387;DHT22;10854;45.922;6.716;2023-03-14T01:31:24;6.20;99.90
21387;DHT22;10854;45.922;6.716;2023-03-14T01:33:53;6.20;99.90
21387;DHT22;10854;45.922;6.716;2023-03-14T01:36:21;6.20;99.90
21387;DHT22;10854;45.922;6.716;2023-03-14T01:38:49;6.20;99.90
21387;DHT22;10854;45.922;6.716;2023-03-14T01:41:21;6.30;99.90
21387;DHT22;10854;45.922;6.716;2023-03-14T01:43:50;6.20;99.90
21387;DHT22;10854;45.922;6.716;2023-03-14T01:46:25;6.20;99.90
21387;DHT22;10854;45.922;6.716;2023-03-14T01:49:33;6.20;99.90
21387;DHT22;10854;45.922;6.716;2023-03-14T01:52:25;6.20;99.90
21387;DHT22;10854;45.922;6.716;2023-03-14T01:55:05;6.20;99.90
21387;DHT22;10854;45.922;6.716;2023-03-14T01:57:44;6.20;99.90
21387;DHT22;10854;45.922;6.716;2023-03-14T02:00:17;6.20;99.90
21387;DHT22;10854;45.922;6.716;2023-03-14T02:02:48;6.20;99.90
21387;DHT22;10854;45.922;6.716;2023-03-14T02:05:23;6.20;99.90
21387;DHT22;10854;45.922;6.716;2023-03-14T02:07:56;6.20;99.90
21387;DHT22;10854;45.922;6.716;2023-03-14T02:10:31;6.20;99.90
21387;DHT22;10854;45.922;6.716;2023-03-14T02:13:03;6.20;99.90
21387;DHT22;10854;45.922;6.716;2023-03-14T02:15:32;6.10;99.90
21387;DHT22;10854;45.922;6.716;2023-03-14T02:18:02;6.10;99.90
21387;DHT22;10854;45.922;6.716;2023-03-14T02:26:27;6.10;99.90
21387;DHT22;10854;45.922;6.716;2023-03-14T02:28:59;6.10;99.90
21387;DHT22;10854;45.922;6.716;2023-03-14T02:31:28;6.10;99.90
21387;DHT22;10854;45.922;6.716;2023-03-14T02:33:57;6.10;99.90
21387;DHT22;10854;45.922;6.716;2023-03-14T02:36:26;6.10;99.90
21387;DHT22;10854;45.922;6.716;2023-03-14T02:39:13;6.10;99.90
21387;DHT22;10854;45.922;6.716;2023-03-14T02:41:43;6.10;99.90
21387;DHT22;10854;45.922;6.716;2023-03-14T02:44:14;6.00;99.90
21387;DHT22;10854;45.922;6.716;2023-03-14T02:46:43;6.00;99.90
21387;DHT22;10854;45.922;6.716;2023-03-14T02:49:14;5.90;99.90
21387;DHT22;10854;45.922;6.716;2023-03-14T02:51:43;5.80;99.90
21387;DHT22;10854;45.922;6.716;2023-03-14T02:54:15;5.80;99.90
21387;DHT22;10854;45.922;6.716;2023-03-14T02:56:45;5.70;99.90
21387;DHT22;10854;45.922;6.716;2023-03-14T02:59:13;5.60;99.90
21387;DHT22;10854;45.922;6.716;2023-03-14T03:01:42;5.60;99.90
21387;DHT22;10854;45.922;6.716;2023-03-14T03:04:10;5.60;99.90
21387;DHT22;10854;45.922;6.716;2023-03-14T03:06:39;5.50;99.90
21387;DHT22;10854;45.922;6.716;2023-03-14T03:09:07;5.50;99.90
21387;DHT22;10854;45.922;6.716;2023-03-14T03:11:35;5.50;99.90
21387;DHT22;10854;45.922;6.716;2023-03-14T03:14:04;5.50;99.90
21387;DHT22;10854;45.922;6.716;2023-03-14T03:16:32;5.50;99.90
21387;DHT22;10854;45.922;6.716;2023-03-14T03:19:00;5.40;99.90
21387;DHT22;10854;45.922;6.716;2023-03-14T03:21:29;5.40;99.90
21387;DHT22;10854;45.922;6.716;2023-03-14T03:23:57;5.50;99.90
21387;DHT22;10854;45.922;6.716;2023-03-14T03:26:25;5.50;99.90
21387;DHT22;10854;45.922;6.716;2023-03-14T03:28:54;5.50;99.90
21387;DHT22;10854;45.922;6.716;2023-03-14T03:31:22;5.50;99.90
21387;DHT22;10854;45.922;6.716;2023-03-14T03:33:51;5.50;99.90
21387;DHT22;10854;45.922;6.716;2023-03-14T03:36:24;5.50;99.90
21387;DHT22;10854;45.922;6.716;2023-03-14T03:38:53;5.50;99.90
21387;DHT22;10854;45.922;6.716;2023-03-14T03:41:25;5.50;99.90
21387;DHT22;10854;45.922;6.716;2023-03-14T03:43:54;5.50;99.90
21387;DHT22;10854;45.922;6.716;2023-03-14T03:46:23;5.60;99.90
21387;DHT22;10854;45.922;6.716;2023-03-14T03:49:00;5.60;99.90
21387;DHT22;10854;45.922;6.716;2023-03-14T03:51:28;5.60;99.90
21387;DHT22;10854;45.922;6.716;2023-03-14T03:53:57;5.60;99.90
21387;DHT22;10854;45.922;6.716;2023-03-14T03:56:25;5.60;99.90
21387;DHT22;10854;45.922;6.716;2023-03-14T03:58:54;5.60;99.90
21387;DHT22;10854;45.922;6.716;2023-03-14T04:01:22;5.60;99.90
21387;DHT22;10854;45.922;6.716;2023-03-14T04:03:50;5.60;99.90
21387;DHT22;10854;45.922;6.716;2023-03-14T04:06:19;5.60;99.90
21387;DHT22;10854;45.922;6.716;2023-03-14T04:08:47;5.70;99.90
21387;DHT22;10854;45.922;6.716;2023-03-14T04:11:16;5.70;99.90
21387;DHT22;10854;45.922;6.716;2023-03-14T04:13:45;5.70;99.90
21387;DHT22;10854;45.922;6.716;2023-03-14T04:16:22;5.70;99.90
21387;DHT22;10854;45.922;6.716;2023-03-14T04:18:52;5.80;99.90
21387;DHT22;10854;45.922;6.716;2023-03-14T04:21:20;5.80;99.90
21387;DHT22;10854;45.922;6.716;2023-03-14T04:23:48;5.80;99.90
21387;DHT22;10854;45.922;6.716;2023-03-14T04:26:18;5.80;99.90
21387;DHT22;10854;45.922;6.716;2023-03-14T04:28:47;5.80;99.90
21387;DHT22;10854;45.922;6.716;2023-03-14T04:31:19;5.80;99.90
21387;DHT22;10854;45.922;6.716;2023-03-14T04:33:48;5.80;99.90
21387;DHT22;10854;45.922;6.716;2023-03-14T04:36:16;5.80;99.90
21387;DHT22;10854;45.922;6.716;2023-03-14T04:38:45;5.80;99.90
21387;DHT22;10854;45.922;6.716;2023-03-14T04:41:13;5.90;99.90
21387;DHT22;10854;45.922;6.716;2023-03-14T04:43:41;5.90;99.90
21387;DHT22;10854;45.922;6.716;2023-03-14T04:46:10;5.90;99.90
21387;DHT22;10854;45.922;6.716;2023-03-14T04:48:39;5.90;99.90
21387;DHT22;10854;45.922;6.716;2023-03-14T04:51:07;5.90;99.90
21387;DHT22;10854;45.922;6.716;2023-03-14T04:53:36;5.90;99.90
21387;DHT22;10854;45.922;6.716;2023-03-14T04:56:05;5.90;99.90
21387;DHT22;10854;45.922;6.716;2023-03-14T04:58:34;5.90;99.90
21387;DHT22;10854;45.922;6.716;2023-03-14T05:01:04;5.90;99.90
21387;DHT22;10854;45.922;6.716;2023-03-14T05:03:32;5.90;99.90
21387;DHT22;10854;45.922;6.716;2023-03-14T05:06:01;5.90;99.90
21387;DHT22;10854;45.922;6.716;2023-03-14T05:08:29;5.90;99.90
21387;DHT22;10854;45.922;6.716;2023-03-14T05:10:58;5.90;99.90
21387;DHT22;10854;45.922;6.716;2023-03-14T05:13:26;5.90;99.90
21387;DHT22;10854;45.922;6.716;2023-03-14T05:16:03;5.90;99.90
21387;DHT22;10854;45.922;6.716;2023-03-14T05:18:32;5.90;99.90
21387;DHT22;10854;45.922;6.716;2023-03-14T05:21:00;5.90;99.90
21387;DHT22;10854;45.922;6.716;2023-03-14T05:23:29;5.90;99.90
21387;DHT22;10854;45.922;6.716;2023-03-14T05:25:57;5.90;99.90
21387;DHT22;10854;45.922;6.716;2023-03-14T05:28:26;5.90;99.90
21387;DHT22;10854;45.922;6.716;2023-03-14T05:30:54;5.90;99.90
21387;DHT22;10854;45.922;6.716;2023-03-14T05:33:23;5.90;99.90
21387;DHT22;10854;45.922;6.716;2023-03-14T05:35:51;5.90;99.90
21387;DHT22;10854;45.922;6.716;2023-03-14T05:38:20;5.90;99.90
21387;DHT22;10854;45.922;6.716;2023-03-14T05:40:50;5.90;99.90
21387;DHT22;10854;45.922;6.716;2023-03-14T05:43:19;5.90;99.90
21387;DHT22;10854;45.922;6.716;2023-03-14T05:45:47;5.90;99.90
21387;DHT22;10854;45.922;6.716;2023-03-14T05:48:17;5.90;99.90
21387;DHT22;10854;45.922;6.716;2023-03-14T05:50:46;5.90;99.90
21387;DHT22;10854;45.922;6.716;2023-03-14T05:53:15;5.90;99.90
21387;DHT22;10854;45.922;6.716;2023-03-14T05:55:43;6.00;99.90
21387;DHT22;10854;45.922;6.716;2023-03-14T05:58:12;6.00;99.90
21387;DHT22;10854;45.922;6.716;2023-03-14T06:00:40;6.00;99.90
21387;DHT22;10854;45.922;6.716;2023-03-14T06:03:08;6.00;99.90
21387;DHT22;10854;45.922;6.716;2023-03-14T06:05:37;6.10;99.90
21387;DHT22;10854;45.922;6.716;2023-03-14T06:08:05;6.00;99.90
21387;DHT22;10854;45.922;6.716;2023-03-14T06:10:35;6.10;99.90
21387;DHT22;10854;45.922;6.716;2023-03-14T06:13:04;6.10;99.90
21387;DHT22;10854;45.922;6.716;2023-03-14T06:15:32;6.10;99.90
21387;DHT22;10854;45.922;6.716;2023-03-14T06:18:01;6.20;99.90
21387;DHT22;10854;45.922;6.716;2023-03-14T06:20:30;6.10;99.90
21387;DHT22;10854;45.922;6.716;2023-03-14T06:22:58;6.20;99.90
21387;DHT22;10854;45.922;6.716;2023-03-14T06:25:28;6.20;99.90
21387;DHT22;10854;45.922;6.716;2023-03-14T06:27:56;6.30;99.90
21387;DHT22;10854;45.922;6.716;2023-03-14T06:30:25;6.30;99.90
21387;DHT22;10854;45.922;6.716;2023-03-14T06:32:54;6.30;99.90
21387;DHT22;10854;45.922;6.716;2023-03-14T06:35:23;6.30;99.90
21387;DHT22;10854;45.922;6.716;2023-03-14T06:37:51;6.30;99.90
21387;DHT22;10854;45.922;6.716;2023-03-14T06:40:20;6.40;99.90
21387;DHT22;10854;45.922;6.716;2023-03-14T06:42:48;6.40;99.90
21387;DHT22;10854;45.922;6.716;2023-03-14T06:45:18;6.40;99.90
21387;DHT22;10854;45.922;6.716;2023-03-14T06:47:46;6.40;99.90
21387;DHT22;10854;45.922;6.716;2023-03-14T06:50:15;6.40;99.90
21387;DHT22;10854;45.922;6.716;2023-03-14T06:52:43;6.50;99.90
21387;DHT22;10854;45.922;6.716;2023-03-14T06:55:16;6.50;99.90
21387;DHT22;10854;45.922;6.716;2023-03-14T06:57:47;6.50;99.90
21387;DHT22;10854;45.922;6.716;2023-03-14T07:00:16;6.50;99.90
21387;DHT22;10854;45.922;6.716;2023-03-14T07:02:44;6.50;99.90
21387;DHT22;10854;45.922;6.716;2023-03-14T07:05:13;6.60;99.90
21387;DHT22;10854;45.922;6.716;2023-03-14T07:07:41;6.60;99.90
21387;DHT22;10854;45.922;6.716;2023-03-14T07:10:10;6.60;99.90
21387;DHT22;10854;45.922;6.716;2023-03-14T07:12:38;6.60;99.90
21387;DHT22;10854;45.922;6.716;2023-03-14T07:15:08;6.60;99.90
21387;DHT22;10854;45.922;6.716;2023-03-14T07:17:45;6.70;99.90
21387;DHT22;10854;45.922;6.716;2023-03-14T07:20:16;6.70;99.90
21387;DHT22;10854;45.922;6.716;2023-03-14T07:22:48;6.70;99.90
21387;DHT22;10854;45.922;6.716;2023-03-14T07:25:17;6.70;99.90
21387;DHT22;10854;45.922;6.716;2023-03-14T07:27:46;6.60;99.90
21387;DHT22;10854;45.922;6.716;2023-03-14T07:30:18;6.60;99.90
21387;DHT22;10854;45.922;6.716;2023-03-14T07:32:46;6.60;99.90
21387;DHT22;10854;45.922;6.716;2023-03-14T07:35:14;6.70;99.90
21387;DHT22;10854;45.922;6.716;2023-03-14T07:37:43;6.70;99.90
21387;DHT22;10854;45.922;6.716;2023-03-14T07:40:12;6.60;99.90
21387;DHT22;10854;45.922;6.716;2023-03-14T07:42:43;6.70;99.90
21387;DHT22;10854;45.922;6.716;2023-03-14T07:45:11;6.70;99.90
21387;DHT22;10854;45.922;6.716;2023-03-14T07:47:40;6.70;99.90
21387;DHT22;10854;45.922;6.716;2023-03-14T07:50:09;6.70;99.90
21387;DHT22;10854;45.922;6.716;2023-03-14T07:52:37;6.70;99.90
21387;DHT22;10854;45.922;6.716;2023-03-14T07:55:06;6.70;99.90
21387;DHT22;10854;45.922;6.716;2023-03-14T07:57:34;6.80;99.90
21387;DHT22;10854;45.922;6.716;2023-03-14T08:00:04;6.80;99.90
21387;DHT22;10854;45.922;6.716;2023-03-14T08:02:33;6.80;99.90
21387;DHT22;10854;45.922;6.716;2023-03-14T08:05:04;6.80;99.90
21387;DHT22;10854;45.922;6.716;2023-03-14T08:07:32;6.90;99.90
21387;DHT22;10854;45.922;6.716;2023-03-14T08:10:01;6.90;99.90
21387;DHT22;10854;45.922;6.716;2023-03-14T08:12:29;6.90;99.90
21387;DHT22;10854;45.922;6.716;2023-03-14T08:14:58;6.90;99.90
21387;DHT22;10854;45.922;6.716;2023-03-14T08:17:27;6.90;99.90
21387;DHT22;10854;45.922;6.716;2023-03-14T08:19:55;7.00;99.90
21387;DHT22;10854;45.922;6.716;2023-03-14T08:22:24;6.90;99.90
21387;DHT22;10854;45.922;6.716;2023-03-14T08:24:52;7.00;99.90
21387;DHT22;10854;45.922;6.716;2023-03-14T08:27:20;7.00;99.90
21387;DHT22;10854;45.922;6.716;2023-03-14T08:29:49;7.00;99.90
21387;DHT22;10854;45.922;6.716;2023-03-14T08:32:17;7.00;99.90
21387;DHT22;10854;45.922;6.716;2023-03-14T08:34:48;7.10;99.90
21387;DHT22;10854;45.922;6.716;2023-03-14T08:37:16;7.10;99.90
21387;DHT22;10854;45.922;6.716;2023-03-14T08:39:55;7.10;99.90
21387;DHT22;10854;45.922;6.716;2023-03-14T08:42:24;7.10;99.90
21387;DHT22;10854;45.922;6.716;2023-03-14T08:44:52;7.10;99.90
21387;DHT22;10854;45.922;6.716;2023-03-14T08:47:21;7.10;99.90
21387;DHT22;10854;45.922;6.716;2023-03-14T08:49:49;7.10;99.90
21387;DHT22;10854;45.922;6.716;2023-03-14T08:52:18;7.10;99.90
21387;DHT22;10854;45.922;6.716;2023-03-14T08:54:47;7.10;99.90
21387;DHT22;10854;45.922;6.716;2023-03-14T08:57:15;7.10;99.90
21387;DHT22;10854;45.922;6.716;2023-03-14T08:59:44;7.10;99.90
21387;DHT22;10854;45.922;6.716;2023-03-14T09:02:12;7.10;99.90
21387;DHT22;10854;45.922;6.716;2023-03-14T09:04:41;7.10;99.90
21387;DHT22;10854;45.922;6.716;2023-03-14T09:07:09;7.10;99.90
21387;DHT22;10854;45.922;6.716;2023-03-14T09:09:38;7.10;99.90
21387;DHT22;10854;45.922;6.716;2023-03-14T09:12:06;7.10;99.90
21387;DHT22;10854;45.922;6.716;2023-03-14T09:14:35;7.10;99.90
21387;DHT22;10854;45.922;6.716;2023-03-14T09:17:04;7.10;99.90
21387;DHT22;10854;45.922;6.716;2023-03-14T09:19:32;7.10;99.90
21387;DHT22;10854;45.922;6.716;2023-03-14T09:22:01;7.20;99.90
21387;DHT22;10854;45.922;6.716;2023-03-14T09:24:29;7.10;99.90
21387;DHT22;10854;45.922;6.716;2023-03-14T09:26:57;7.20;99.90
21387;DHT22;10854;45.922;6.716;2023-03-14T09:29:26;7.10;99.90
21387;DHT22;10854;45.922;6.716;2023-03-14T09:31:54;7.10;99.90
21387;DHT22;10854;45.922;6.716;2023-03-14T09:34:23;7.00;99.90
21387;DHT22;10854;45.922;6.716;2023-03-14T09:36:51;7.00;99.90
21387;DHT22;10854;45.922;6.716;2023-03-14T09:39:19;7.00;99.90
21387;DHT22;10854;45.922;6.716;2023-03-14T09:41:50;7.00;99.90
21387;DHT22;10854;45.922;6.716;2023-03-14T09:44:24;7.00;99.90
21387;DHT22;10854;45.922;6.716;2023-03-14T09:46:55;7.00;99.90
21387;DHT22;10854;45.922;6.716;2023-03-14T09:49:29;7.00;99.90
21387;DHT22;10854;45.922;6.716;2023-03-14T09:52:01;7.00;99.90
21387;DHT22;10854;45.922;6.716;2023-03-14T09:54:35;7.10;99.90
21387;DHT22;10854;45.922;6.716;2023-03-14T09:57:09;7.00;99.90
21387;DHT22;10854;45.922;6.716;2023-03-14T09:59:40;7.00;99.90
21387;DHT22;10854;45.922;6.716;2023-03-14T10:02:21;7.00;99.90
21387;DHT22;10854;45.922;6.716;2023-03-14T10:04:52;7.00;99.90
21387;DHT22;10854;45.922;6.716;2023-03-14T10:07:28;7.00;99.90
21387;DHT22;10854;45.922;6.716;2023-03-14T10:09:57;7.00;99.90
21387;DHT22;10854;45.922;6.716;2023-03-14T10:12:35;6.90;99.90
21387;DHT22;10854;45.922;6.716;2023-03-14T10:15:10;6.90;99.90
21387;DHT22;10854;45.922;6.716;2023-03-14T10:17:46;6.90;99.90
21387;DHT22;10854;45.922;6.716;2023-03-14T10:23:04;6.80;99.90
21387;DHT22;10854;45.922;6.716;2023-03-14T10:25:37;6.80;99.90
21387;DHT22;10854;45.922;6.716;2023-03-14T10:28:24;6.70;99.90
21387;DHT22;10854;45.922;6.716;2023-03-14T10:30:54;6.60;99.90
21387;DHT22;10854;45.922;6.716;2023-03-14T10:33:23;6.60;99.90
21387;DHT22;10854;45.922;6.716;2023-03-14T10:38:26;6.60;99.90
21387;DHT22;10854;45.922;6.716;2023-03-14T10:40:56;6.50;99.90
21387;DHT22;10854;45.922;6.716;2023-03-14T10:43:28;6.60;99.90
21387;DHT22;10854;45.922;6.716;2023-03-14T10:46:17;6.60;99.90
21387;DHT22;10854;45.922;6.716;2023-03-14T10:48:46;6.60;99.90
21387;DHT22;10854;45.922;6.716;2023-03-14T10:54:04;6.70;99.90
21387;DHT22;10854;45.922;6.716;2023-03-14T10:56:39;6.80;99.90
21387;DHT22;10854;45.922;6.716;2023-03-14T10:59:13;6.80;99.90
21387;DHT22;10854;45.922;6.716;2023-03-14T11:01:58;6.80;99.90
21387;DHT22;10854;45.922;6.716;2023-03-14T11:07:33;6.80;99.90
21387;DHT22;10854;45.922;6.716;2023-03-14T11:13:17;6.80;99.90
21387;DHT22;10854;45.922;6.716;2023-03-14T11:27:15;6.60;99.90
21387;DHT22;10854;45.922;6.716;2023-03-14T11:32:41;6.40;99.90
21387;DHT22;10854;45.922;6.716;2023-03-14T11:35:28;6.30;99.90
21387;DHT22;10854;45.922;6.716;2023-03-14T11:38:28;6.20;99.90
21387;DHT22;10854;45.922;6.716;2023-03-14T11:40:58;6.10;99.90
21387;DHT22;10854;45.922;6.716;2023-03-14T11:43:40;6.10;99.90
21387;DHT22;10854;45.922;6.716;2023-03-14T11:51:38;6.40;99.90
21387;DHT22;10854;45.922;6.716;2023-03-14T11:57:03;6.50;99.90
21387;DHT22;10854;45.922;6.716;2023-03-14T11:59:41;6.50;99.90
21387;DHT22;10854;45.922;6.716;2023-03-14T12:02:21;6.40;99.90
21387;DHT22;10854;45.922;6.716;2023-03-14T12:13:11;6.30;99.90
21387;DHT22;10854;45.922;6.716;2023-03-14T12:15:48;6.40;99.90
21387;DHT22;10854;45.922;6.716;2023-03-14T12:18:26;6.50;99.90
21387;DHT22;10854;45.922;6.716;2023-03-14T12:21:23;6.50;99.90
21387;DHT22;10854;45.922;6.716;2023-03-14T12:23:57;6.60;99.90
21387;DHT22;10854;45.922;6.716;2023-03-14T12:26:28;6.80;99.90
21387;DHT22;10854;45.922;6.716;2023-03-14T12:29:17;7.00;99.90
21387;DHT22;10854;45.922;6.716;2023-03-14T12:31:47;7.10;99.90
21387;DHT22;10854;45.922;6.716;2023-03-14T12:39:40;7.50;99.90
21387;DHT22;10854;45.922;6.716;2023-03-14T12:42:14;7.70;99.90
21387;DHT22;10854;45.922;6.716;2023-03-14T12:44:52;7.90;99.90
21387;DHT22;10854;45.922;6.716;2023-03-14T12:49:52;8.20;99.90
21387;DHT22;10854;45.922;6.716;2023-03-14T12:52:36;8.20;99.90
21387;DHT22;10854;45.922;6.716;2023-03-14T12:55:10;8.20;99.90
21387;DHT22;10854;45.922;6.716;2023-03-14T12:57:42;8.30;99.90
21387;DHT22;10854;45.922;6.716;2023-03-14T13:00:25;8.40;99.90
21387;DHT22;10854;45.922;6.716;2023-03-14T13:03:18;8.40;99.90
21387;DHT22;10854;45.922;6.716;2023-03-14T13:05:55;8.40;99.90
21387;DHT22;10854;45.922;6.716;2023-03-14T13:08:44;8.50;99.90
21387;DHT22;10854;45.922;6.716;2023-03-14T13:11:21;8.50;99.90
21387;DHT22;10854;45.922;6.716;2023-03-14T13:14:00;8.60;99.90
21387;DHT22;10854;45.922;6.716;2023-03-14T13:16:28;8.70;99.90
21387;DHT22;10854;45.922;6.716;2023-03-14T13:19:03;8.80;99.90
21387;DHT22;10854;45.922;6.716;2023-03-14T13:21:38;9.00;99.90
21387;DHT22;10854;45.922;6.716;2023-03-14T13:24:20;9.60;99.90
21387;DHT22;10854;45.922;6.716;2023-03-14T13:26:49;10.50;99.90
21387;DHT22;10854;45.922;6.716;2023-03-14T13:29:32;11.30;99.90
21387;DHT22;10854;45.922;6.716;2023-03-14T13:32:13;11.80;99.90
21387;DHT22;10854;45.922;6.716;2023-03-14T13:34:44;12.10;96.10
21387;DHT22;10854;45.922;6.716;2023-03-14T13:37:18;12.00;94.10
21387;DHT22;10854;45.922;6.716;2023-03-14T13:39:54;12.00;91.30
21387;DHT22;10854;45.922;6.716;2023-03-14T13:42:28;11.90;91.70
21387;DHT22;10854;45.922;6.716;2023-03-14T13:44:57;11.80;89.60
21387;DHT22;10854;45.922;6.716;2023-03-14T13:47:26;11.70;84.20
21387;DHT22;10854;45.922;6.716;2023-03-14T13:49:55;11.80;83.90
21387;DHT22;10854;45.922;6.716;2023-03-14T13:52:40;11.80;82.20
21387;DHT22;10854;45.922;6.716;2023-03-14T13:55:18;12.10;83.60
21387;DHT22;10854;45.922;6.716;2023-03-14T13:57:49;12.30;82.30
21387;DHT22;10854;45.922;6.716;2023-03-14T14:00:24;12.40;81.70
21387;DHT22;10854;45.922;6.716;2023-03-14T14:02:59;12.60;83.50
21387;DHT22;10854;45.922;6.716;2023-03-14T14:05:29;12.60;84.50
21387;DHT22;10854;45.922;6.716;2023-03-14T14:07:59;12.90;84.80
21387;DHT22;10854;45.922;6.716;2023-03-14T14:10:29;13.10;85.80
21387;DHT22;10854;45.922;6.716;2023-03-14T14:13:10;13.10;85.80
21387;DHT22;10854;45.922;6.716;2023-03-14T14:15:44;12.80;85.40
21387;DHT22;10854;45.922;6.716;2023-03-14T14:18:16;12.40;85.60
21387;DHT22;10854;45.922;6.716;2023-03-14T14:20:47;12.00;85.80
21387;DHT22;10854;45.922;6.716;2023-03-14T14:23:19;11.60;86.90
21387;DHT22;10854;45.922;6.716;2023-03-14T14:25:53;11.40;87.60
21387;DHT22;10854;45.922;6.716;2023-03-14T14:28:33;11.20;87.20
21387;DHT22;10854;45.922;6.716;2023-03-14T14:31:16;11.00;86.60
21387;DHT22;10854;45.922;6.716;2023-03-14T14:34:02;11.00;86.90
21387;DHT22;10854;45.922;6.716;2023-03-14T14:36:36;11.00;86.80
21387;DHT22;10854;45.922;6.716;2023-03-14T14:39:21;11.10;83.80
21387;DHT22;10854;45.922;6.716;2023-03-14T14:41:52;11.30;83.00
21387;DHT22;10854;45.922;6.716;2023-03-14T14:44:30;11.70;84.50
21387;DHT22;10854;45.922;6.716;2023-03-14T14:47:02;12.00;82.80
21387;DHT22;10854;45.922;6.716;2023-03-14T14:49:33;12.10;80.90
21387;DHT22;10854;45.922;6.716;2023-03-14T14:52:04;12.10;79.70
21387;DHT22;10854;45.922;6.716;2023-03-14T14:54:39;11.90;79.90
21387;DHT22;10854;45.922;6.716;2023-03-14T14:57:18;11.80;80.50
21387;DHT22;10854;45.922;6.716;2023-03-14T14:59:49;11.60;81.70
21387;DHT22;10854;45.922;6.716;2023-03-14T15:02:32;11.50;81.70
21387;DHT22;10854;45.922;6.716;2023-03-14T15:05:04;11.20;82.00
21387;DHT22;10854;45.922;6.716;2023-03-14T15:07:32;10.90;83.50
21387;DHT22;10854;45.922;6.716;2023-03-14T15:10:00;10.70;84.50
21387;DHT22;10854;45.922;6.716;2023-03-14T15:12:29;10.50;83.70
21387;DHT22;10854;45.922;6.716;2023-03-14T15:14:57;10.10;83.90
21387;DHT22;10854;45.922;6.716;2023-03-14T15:17:26;9.70;85.50
21387;DHT22;10854;45.922;6.716;2023-03-14T15:19:54;9.40;86.60
21387;DHT22;10854;45.922;6.716;2023-03-14T15:22:25;9.20;87.50
21387;DHT22;10854;45.922;6.716;2023-03-14T15:24:53;8.90;88.60
21387;DHT22;10854;45.922;6.716;2023-03-14T15:27:22;8.70;89.60
21387;DHT22;10854;45.922;6.716;2023-03-14T15:29:50;8.60;90.10
21387;DHT22;10854;45.922;6.716;2023-03-14T15:32:19;8.40;89.70
21387;DHT22;10854;45.922;6.716;2023-03-14T15:34:47;8.20;89.90
21387;DHT22;10854;45.922;6.716;2023-03-14T15:37:16;8.00;90.40
21387;DHT22;10854;45.922;6.716;2023-03-14T15:39:45;7.90;90.90
21387;DHT22;10854;45.922;6.716;2023-03-14T15:42:13;7.80;91.60
21387;DHT22;10854;45.922;6.716;2023-03-14T15:44:42;7.70;92.50
21387;DHT22;10854;45.922;6.716;2023-03-14T15:47:11;7.70;93.70
21387;DHT22;10854;45.922;6.716;2023-03-14T15:49:39;7.70;94.80
21387;DHT22;10854;45.922;6.716;2023-03-14T15:52:08;7.70;96.10
21387;DHT22;10854;45.922;6.716;2023-03-14T15:54:36;7.70;97.70
21387;DHT22;10854;45.922;6.716;2023-03-14T15:57:04;7.80;99.40
21387;DHT22;10854;45.922;6.716;2023-03-14T15:59:34;8.00;99.90
21387;DHT22;10854;45.922;6.716;2023-03-14T16:02:03;8.10;99.90
21387;DHT22;10854;45.922;6.716;2023-03-14T16:04:31;8.20;99.90
21387;DHT22;10854;45.922;6.716;2023-03-14T16:06:59;8.30;99.90
21387;DHT22;10854;45.922;6.716;2023-03-14T16:09:28;8.40;99.90
21387;DHT22;10854;45.922;6.716;2023-03-14T16:11:56;8.50;99.90
21387;DHT22;10854;45.922;6.716;2023-03-14T16:14:24;8.60;99.90
21387;DHT22;10854;45.922;6.716;2023-03-14T16:16:54;8.60;99.90
21387;DHT22;10854;45.922;6.716;2023-03-14T16:19:26;8.70;99.90
21387;DHT22;10854;45.922;6.716;2023-03-14T16:21:55;8.70;99.90
21387;DHT22;10854;45.922;6.716;2023-03-14T16:24:24;8.50;98.80
21387;DHT22;10854;45.922;6.716;2023-03-14T16:26:52;8.40;98.70
21387;DHT22;10854;45.922;6.716;2023-03-14T16:29:21;8.20;99.20
21387;DHT22;10854;45.922;6.716;2023-03-14T16:31:49;8.10;99.90
21387;DHT22;10854;45.922;6.716;2023-03-14T16:34:19;8.00;99.90
21387;DHT22;10854;45.922;6.716;2023-03-14T16:36:47;7.90;99.90
21387;DHT22;10854;45.922;6.716;2023-03-14T16:39:19;7.70;99.90
21387;DHT22;10854;45.922;6.716;2023-03-14T16:41:47;7.30;99.90
21387;DHT22;10854;45.922;6.716;2023-03-14T16:44:16;7.10;99.90
21387;DHT22;10854;45.922;6.716;2023-03-14T16:46:44;6.80;99.90
21387;DHT22;10854;45.922;6.716;2023-03-14T16:49:13;6.50;99.90
21387;DHT22;10854;45.922;6.716;2023-03-14T16:51:41;6.20;99.90
21387;DHT22;10854;45.922;6.716;2023-03-14T16:54:10;6.00;99.90
21387;DHT22;10854;45.922;6.716;2023-03-14T16:56:38;5.90;99.90
21387;DHT22;10854;45.922;6.716;2023-03-14T16:59:06;5.80;99.90
21387;DHT22;10854;45.922;6.716;2023-03-14T17:01:35;5.70;99.90
21387;DHT22;10854;45.922;6.716;2023-03-14T17:04:04;5.60;99.90
21387;DHT22;10854;45.922;6.716;2023-03-14T17:06:36;5.50;99.90
21387;DHT22;10854;45.922;6.716;2023-03-14T17:09:05;5.50;99.90